NKS1964 KMCO-KEWR
Flight info
| Callsign | NKS1964 |
|---|---|
| Flight time | N/A |
| Altitude | 33000 |
| Route | FATHE4 VIYAP Q87 ALWZZ OGRAE Q99 QUART PHLBO4 |
| Aircraft | A321/M-SDE3FGHIRWY/LB1 |
Departure
| Time | 2026-05-05 21:34 |
|---|---|
| Airport | Orlando International Airport (KMCO) |
Arrival
| Time | N/A |
|---|---|
| Airport | Newark Liberty International Airport (KEWR) |
| Time | Latitude | Longitude | Altitude | Speed | Heading |
|---|---|---|---|---|---|
| 2026-05-05 20:49 | 28.42650 | -81.31320 | 101 ft | 0 kts | 13° |
| 2026-05-05 20:50 | 28.42651 | -81.31320 | 102 ft | 0 kts | 13° |
| 2026-05-05 21:07 | 28.42650 | -81.31320 | 101 ft | 0 kts | 13° |
| 2026-05-05 21:08 | 28.42651 | -81.31320 | 101 ft | 0 kts | 13° |
| 2026-05-05 21:08 | 28.42650 | -81.31320 | 101 ft | 0 kts | 13° |
| 2026-05-05 21:15 | 28.42636 | -81.31324 | 101 ft | 4 kts | 6° |
| 2026-05-05 21:16 | 28.42610 | -81.31323 | 101 ft | 4 kts | 348° |
| 2026-05-05 21:16 | 28.42584 | -81.31317 | 101 ft | 2 kts | 358° |
| 2026-05-05 21:16 | 28.42561 | -81.31319 | 100 ft | 4 kts | 31° |
| 2026-05-05 21:16 | 28.42546 | -81.31340 | 101 ft | 4 kts | 74° |
| 2026-05-05 21:17 | 28.42544 | -81.31348 | 101 ft | 1 kts | 77° |
| 2026-05-05 21:21 | 28.42545 | -81.31346 | 101 ft | 1 kts | 77° |
| 2026-05-05 21:21 | 28.42549 | -81.31328 | 101 ft | 3 kts | 76° |
| 2026-05-05 21:21 | 28.42555 | -81.31301 | 101 ft | 4 kts | 76° |
| 2026-05-05 21:21 | 28.42563 | -81.31264 | 101 ft | 6 kts | 76° |
| 2026-05-05 21:22 | 28.42566 | -81.31217 | 101 ft | 6 kts | 98° |
| 2026-05-05 21:22 | 28.42530 | -81.31194 | 101 ft | 7 kts | 186° |
| 2026-05-05 21:22 | 28.42478 | -81.31224 | 100 ft | 9 kts | 211° |
| 2026-05-05 21:22 | 28.42423 | -81.31261 | 100 ft | 10 kts | 211° |
| 2026-05-05 21:23 | 28.42361 | -81.31293 | 101 ft | 9 kts | 176° |
| 2026-05-05 21:23 | 28.42344 | -81.31234 | 102 ft | 9 kts | 88° |
| 2026-05-05 21:23 | 28.42340 | -81.31160 | 100 ft | 10 kts | 99° |
| 2026-05-05 21:23 | 28.42325 | -81.31085 | 101 ft | 10 kts | 102° |
| 2026-05-05 21:24 | 28.42317 | -81.31005 | 100 ft | 10 kts | 91° |
| 2026-05-05 21:24 | 28.42320 | -81.30922 | 100 ft | 11 kts | 87° |
| 2026-05-05 21:24 | 28.42324 | -81.30835 | 101 ft | 11 kts | 86° |
| 2026-05-05 21:24 | 28.42328 | -81.30778 | 105 ft | 4 kts | 84° |
| 2026-05-05 21:25 | 28.42331 | -81.30746 | 104 ft | 6 kts | 84° |
| 2026-05-05 21:25 | 28.42337 | -81.30685 | 106 ft | 9 kts | 84° |
| 2026-05-05 21:25 | 28.42344 | -81.30606 | 106 ft | 10 kts | 84° |
| 2026-05-05 21:25 | 28.42350 | -81.30523 | 106 ft | 11 kts | 85° |
| 2026-05-05 21:26 | 28.42355 | -81.30431 | 101 ft | 12 kts | 94° |
| 2026-05-05 21:26 | 28.42316 | -81.30394 | 101 ft | 8 kts | 171° |
| 2026-05-05 21:26 | 28.42276 | -81.30362 | 101 ft | 8 kts | 108° |
| 2026-05-05 21:26 | 28.42277 | -81.30297 | 102 ft | 8 kts | 87° |
| 2026-05-05 21:27 | 28.42279 | -81.30227 | 102 ft | 9 kts | 88° |
| 2026-05-05 21:27 | 28.42280 | -81.30152 | 102 ft | 10 kts | 89° |
| 2026-05-05 21:27 | 28.42282 | -81.30078 | 103 ft | 9 kts | 89° |
| 2026-05-05 21:27 | 28.42281 | -81.30008 | 104 ft | 9 kts | 91° |
| 2026-05-05 21:28 | 28.42281 | -81.29940 | 105 ft | 9 kts | 89° |
| 2026-05-05 21:28 | 28.42282 | -81.29867 | 104 ft | 10 kts | 89° |
| 2026-05-05 21:28 | 28.42255 | -81.29792 | 102 ft | 12 kts | 152° |
| 2026-05-05 21:28 | 28.42172 | -81.29788 | 102 ft | 12 kts | 181° |
| 2026-05-05 21:29 | 28.42085 | -81.29789 | 102 ft | 13 kts | 180° |
| 2026-05-05 21:29 | 28.41995 | -81.29790 | 102 ft | 13 kts | 180° |
| 2026-05-05 21:29 | 28.41902 | -81.29791 | 102 ft | 14 kts | 180° |
| 2026-05-05 21:29 | 28.41805 | -81.29792 | 102 ft | 14 kts | 180° |
| 2026-05-05 21:30 | 28.41705 | -81.29790 | 102 ft | 15 kts | 178° |
| 2026-05-05 21:30 | 28.41603 | -81.29787 | 102 ft | 15 kts | 179° |
| 2026-05-05 21:30 | 28.41494 | -81.29784 | 101 ft | 15 kts | 179° |
| 2026-05-05 21:30 | 28.41386 | -81.29783 | 101 ft | 16 kts | 179° |
| 2026-05-05 21:31 | 28.41274 | -81.29782 | 101 ft | 16 kts | 179° |
| 2026-05-05 21:31 | 28.41162 | -81.29781 | 101 ft | 16 kts | 180° |
| 2026-05-05 21:31 | 28.41051 | -81.29780 | 100 ft | 16 kts | 180° |
| 2026-05-05 21:31 | 28.40936 | -81.29780 | 100 ft | 17 kts | 179° |
| 2026-05-05 21:32 | 28.40835 | -81.29764 | 101 ft | 12 kts | 143° |
| 2026-05-05 21:32 | 28.40818 | -81.29670 | 100 ft | 13 kts | 90° |
| 2026-05-05 21:32 | 28.40826 | -81.29568 | 97 ft | 9 kts | 64° |
| 2026-05-05 21:32 | 28.40870 | -81.29560 | 99 ft | 6 kts | 360° |
| 2026-05-05 21:33 | 28.40920 | -81.29560 | 97 ft | 10 kts | 360° |
| 2026-05-05 21:33 | 28.41192 | -81.29561 | 101 ft | 74 kts | 359° |
| 2026-05-05 21:33 | 28.41922 | -81.29570 | 104 ft | 134 kts | 359° |
| 2026-05-05 21:33 | 28.43032 | -81.29576 | 159 ft | 178 kts | 354° |
| 2026-05-05 21:34 | 28.44234 | -81.29598 | 890 ft | 170 kts | 1° |
| 2026-05-05 21:34 | 28.45386 | -81.29356 | 1554 ft | 171 kts | 25° |
| 2026-05-05 21:34 | 28.46420 | -81.28668 | 2251 ft | 172 kts | 32° |
| 2026-05-05 21:34 | 28.47450 | -81.27964 | 2828 ft | 176 kts | 34° |
| 2026-05-05 21:35 | 28.48542 | -81.27234 | 3197 ft | 189 kts | 32° |
| 2026-05-05 21:35 | 28.49720 | -81.26449 | 3453 ft | 204 kts | 31° |
| 2026-05-05 21:35 | 28.51007 | -81.25631 | 3703 ft | 220 kts | 28° |
| 2026-05-05 21:35 | 28.52536 | -81.25148 | 3902 ft | 239 kts | 4° |
| 2026-05-05 21:36 | 28.54255 | -81.25083 | 4240 ft | 253 kts | 1° |
| 2026-05-05 21:36 | 28.56073 | -81.25067 | 4629 ft | 267 kts | 358° |
| 2026-05-05 21:36 | 28.57924 | -81.25144 | 5220 ft | 271 kts | 356° |
| 2026-05-05 21:36 | 28.59818 | -81.25355 | 5829 ft | 276 kts | 349° |
| 2026-05-05 21:37 | 28.61725 | -81.25686 | 6491 ft | 278 kts | 348° |
| 2026-05-05 21:37 | 28.63631 | -81.26033 | 7172 ft | 278 kts | 348° |
| 2026-05-05 21:37 | 28.65550 | -81.26348 | 7818 ft | 280 kts | 349° |
| 2026-05-05 21:37 | 28.67498 | -81.26622 | 8425 ft | 284 kts | 350° |
| 2026-05-05 21:38 | 28.69475 | -81.26868 | 9056 ft | 287 kts | 349° |
| 2026-05-05 21:38 | 28.71464 | -81.27114 | 9713 ft | 288 kts | 349° |
| 2026-05-05 21:38 | 28.73459 | -81.27365 | 10309 ft | 289 kts | 348° |
| 2026-05-05 21:38 | 28.75464 | -81.27630 | 10853 ft | 291 kts | 348° |
| 2026-05-05 21:39 | 28.77478 | -81.27911 | 11424 ft | 292 kts | 348° |
| 2026-05-05 21:39 | 28.79485 | -81.28203 | 12047 ft | 290 kts | 348° |
| 2026-05-05 21:39 | 28.81516 | -81.28495 | 12446 ft | 300 kts | 349° |
| 2026-05-05 21:39 | 28.83643 | -81.28783 | 12669 ft | 315 kts | 349° |
| 2026-05-05 21:40 | 28.85884 | -81.29052 | 12812 ft | 332 kts | 351° |
| 2026-05-05 21:40 | 28.88245 | -81.29276 | 12945 ft | 349 kts | 352° |
| 2026-05-05 21:40 | 28.90716 | -81.29478 | 13074 ft | 364 kts | 353° |
| 2026-05-05 21:40 | 28.93292 | -81.29676 | 13197 ft | 378 kts | 353° |
| 2026-05-05 21:41 | 28.95047 | -81.29811 | 13304 ft | 387 kts | 353° |